sensor_id;sensor_type;location;lat;lon;timestamp;pressure;altitude;pressure_sealevel;temperature
74485;BMP280;62942;52.462;10.846;2023-07-09T00:00:40;101220;;;
74485;BMP280;62942;52.462;10.846;2023-07-09T00:01:40;101220;;;
74485;BMP280;62942;52.462;10.846;2023-07-09T00:02:50;101220;;;
74485;BMP280;62942;52.462;10.846;2023-07-09T00:03:50;101210;;;
74485;BMP280;62942;52.462;10.846;2023-07-09T00:05:00;101210;;;
74485;BMP280;62942;52.462;10.846;2023-07-09T00:06:00;101210;;;
74485;BMP280;62942;52.462;10.846;2023-07-09T00:07:13;101220;;;
74485;BMP280;62942;52.462;10.846;2023-07-09T00:08:11;101220;;;
74485;BMP280;62942;52.462;10.846;2023-07-09T00:09:20;101220;;;
74485;BMP280;62942;52.462;10.846;2023-07-09T00:10:20;101230;;;
74485;BMP280;62942;52.462;10.846;2023-07-09T00:11:20;101230;;;
74485;BMP280;62942;52.462;10.846;2023-07-09T00:12:30;101230;;;
74485;BMP280;62942;52.462;10.846;2023-07-09T00:13:30;101230;;;
74485;BMP280;62942;52.462;10.846;2023-07-09T00:14:40;101230;;;
74485;BMP280;62942;52.462;10.846;2023-07-09T00:15:40;101230;;;
74485;BMP280;62942;52.462;10.846;2023-07-09T00:16:50;101220;;;
74485;BMP280;62942;52.462;10.846;2023-07-09T00:17:50;101220;;;
74485;BMP280;62942;52.462;10.846;2023-07-09T00:18:50;101220;;;
74485;BMP280;62942;52.462;10.846;2023-07-09T00:19:50;101220;;;
74485;BMP280;62942;52.462;10.846;2023-07-09T00:21:00;101220;;;
74485;BMP280;62942;52.462;10.846;2023-07-09T00:22:00;101220;;;
74485;BMP280;62942;52.462;10.846;2023-07-09T00:23:00;101220;;;
74485;BMP280;62942;52.462;10.846;2023-07-09T00:24:10;101220;;;
74485;BMP280;62942;52.462;10.846;2023-07-09T00:25:10;101210;;;
74485;BMP280;62942;52.462;10.846;2023-07-09T00:26:20;101230;;;
74485;BMP280;62942;52.462;10.846;2023-07-09T00:27:30;101220;;;
74485;BMP280;62942;52.462;10.846;2023-07-09T00:28:40;101230;;;
74485;BMP280;62942;52.462;10.846;2023-07-09T00:29:50;101230;;;
74485;BMP280;62942;52.462;10.846;2023-07-09T00:30:50;101230;;;
74485;BMP280;62942;52.462;10.846;2023-07-09T00:32:00;101230;;;
74485;BMP280;62942;52.462;10.846;2023-07-09T00:33:00;101220;;;
74485;BMP280;62942;52.462;10.846;2023-07-09T00:34:00;101220;;;
74485;BMP280;62942;52.462;10.846;2023-07-09T00:35:00;101230;;;
74485;BMP280;62942;52.462;10.846;2023-07-09T00:36:11;101220;;;
74485;BMP280;62942;52.462;10.846;2023-07-09T00:37:21;101220;;;
74485;BMP280;62942;52.462;10.846;2023-07-09T00:38:30;101220;;;
74485;BMP280;62942;52.462;10.846;2023-07-09T00:39:30;101220;;;
74485;BMP280;62942;52.462;10.846;2023-07-09T00:40:45;101220;;;
74485;BMP280;62942;52.462;10.846;2023-07-09T00:41:50;101220;;;
74485;BMP280;62942;52.462;10.846;2023-07-09T00:42:52;101220;;;
74485;BMP280;62942;52.462;10.846;2023-07-09T00:44:13;101220;;;
74485;BMP280;62942;52.462;10.846;2023-07-09T00:45:00;101220;;;
74485;BMP280;62942;52.462;10.846;2023-07-09T00:46:14;101220;;;
74485;BMP280;62942;52.462;10.846;2023-07-09T00:47:21;101220;;;
74485;BMP280;62942;52.462;10.846;2023-07-09T00:48:20;101220;;;
74485;BMP280;62942;52.462;10.846;2023-07-09T00:49:26;101220;;;
74485;BMP280;62942;52.462;10.846;2023-07-09T00:50:24;101230;;;
74485;BMP280;62942;52.462;10.846;2023-07-09T00:51:30;101220;;;
74485;BMP280;62942;52.462;10.846;2023-07-09T00:52:32;101220;;;
74485;BMP280;62942;52.462;10.846;2023-07-09T00:53:40;101230;;;
74485;BMP280;62942;52.462;10.846;2023-07-09T00:54:50;101220;;;
74485;BMP280;62942;52.462;10.846;2023-07-09T00:55:51;101220;;;
74485;BMP280;62942;52.462;10.846;2023-07-09T00:57:01;101220;;;
74485;BMP280;62942;52.462;10.846;2023-07-09T00:58:11;101220;;;
74485;BMP280;62942;52.462;10.846;2023-07-09T00:59:20;101220;;;
74485;BMP280;62942;52.462;10.846;2023-07-09T01:00:20;101220;;;
74485;BMP280;62942;52.462;10.846;2023-07-09T01:01:30;101220;;;
74485;BMP280;62942;52.462;10.846;2023-07-09T01:02:40;101220;;;
74485;BMP280;62942;52.462;10.846;2023-07-09T01:03:41;101220;;;
74485;BMP280;62942;52.462;10.846;2023-07-09T01:04:50;101220;;;
74485;BMP280;62942;52.462;10.846;2023-07-09T01:06:00;101220;;;
74485;BMP280;62942;52.462;10.846;2023-07-09T01:07:10;101220;;;
74485;BMP280;62942;52.462;10.846;2023-07-09T01:08:10;101220;;;
74485;BMP280;62942;52.462;10.846;2023-07-09T01:09:20;101220;;;
74485;BMP280;62942;52.462;10.846;2023-07-09T01:10:30;101220;;;
74485;BMP280;62942;52.462;10.846;2023-07-09T01:11:30;101220;;;
74485;BMP280;62942;52.462;10.846;2023-07-09T01:12:30;101220;;;
74485;BMP280;62942;52.462;10.846;2023-07-09T01:13:40;101220;;;
74485;BMP280;62942;52.462;10.846;2023-07-09T01:14:40;101220;;;
74485;BMP280;62942;52.462;10.846;2023-07-09T01:15:40;101220;;;
74485;BMP280;62942;52.462;10.846;2023-07-09T01:16:50;101200;;;
74485;BMP280;62942;52.462;10.846;2023-07-09T01:17:50;101210;;;
74485;BMP280;62942;52.462;10.846;2023-07-09T01:19:00;101220;;;
74485;BMP280;62942;52.462;10.846;2023-07-09T01:20:14;101220;;;
74485;BMP280;62942;52.462;10.846;2023-07-09T01:21:10;101220;;;
74485;BMP280;62942;52.462;10.846;2023-07-09T01:22:21;101220;;;
74485;BMP280;62942;52.462;10.846;2023-07-09T01:23:30;101220;;;
74485;BMP280;62942;52.462;10.846;2023-07-09T01:24:57;101220;;;
74485;BMP280;62942;52.462;10.846;2023-07-09T01:25:41;101220;;;
74485;BMP280;62942;52.462;10.846;2023-07-09T01:26:50;101220;;;
74485;BMP280;62942;52.462;10.846;2023-07-09T01:28:00;101220;;;
74485;BMP280;62942;52.462;10.846;2023-07-09T01:29:00;101220;;;
74485;BMP280;62942;52.462;10.846;2023-07-09T01:30:11;101220;;;
74485;BMP280;62942;52.462;10.846;2023-07-09T01:31:20;101220;;;
74485;BMP280;62942;52.462;10.846;2023-07-09T01:32:30;101220;;;
74485;BMP280;62942;52.462;10.846;2023-07-09T01:33:40;101220;;;
74485;BMP280;62942;52.462;10.846;2023-07-09T01:34:40;101220;;;
74485;BMP280;62942;52.462;10.846;2023-07-09T01:35:50;101220;;;
74485;BMP280;62942;52.462;10.846;2023-07-09T01:37:00;101210;;;
74485;BMP280;62942;52.462;10.846;2023-07-09T01:38:00;101220;;;
74485;BMP280;62942;52.462;10.846;2023-07-09T01:39:10;101210;;;
74485;BMP280;62942;52.462;10.846;2023-07-09T01:40:22;101220;;;
74485;BMP280;62942;52.462;10.846;2023-07-09T01:41:30;101210;;;
74485;BMP280;62942;52.462;10.846;2023-07-09T01:42:40;101210;;;
74485;BMP280;62942;52.462;10.846;2023-07-09T01:43:50;101210;;;
74485;BMP280;62942;52.462;10.846;2023-07-09T01:45:00;101210;;;
74485;BMP280;62942;52.462;10.846;2023-07-09T01:46:00;101210;;;
74485;BMP280;62942;52.462;10.846;2023-07-09T01:47:10;101210;;;
74485;BMP280;62942;52.462;10.846;2023-07-09T01:48:10;101210;;;
74485;BMP280;62942;52.462;10.846;2023-07-09T01:49:20;101200;;;
74485;BMP280;62942;52.462;10.846;2023-07-09T01:50:30;101210;;;
74485;BMP280;62942;52.462;10.846;2023-07-09T01:51:40;101210;;;
74485;BMP280;62942;52.462;10.846;2023-07-09T01:52:50;101210;;;
74485;BMP280;62942;52.462;10.846;2023-07-09T01:54:00;101220;;;
74485;BMP280;62942;52.462;10.846;2023-07-09T01:55:11;101220;;;
74485;BMP280;62942;52.462;10.846;2023-07-09T01:56:20;101220;;;
74485;BMP280;62942;52.462;10.846;2023-07-09T01:57:30;101210;;;
74485;BMP280;62942;52.462;10.846;2023-07-09T01:58:30;101220;;;
74485;BMP280;62942;52.462;10.846;2023-07-09T01:59:30;101220;;;
74485;BMP280;62942;52.462;10.846;2023-07-09T02:00:30;101220;;;
74485;BMP280;62942;52.462;10.846;2023-07-09T02:01:40;101220;;;
74485;BMP280;62942;52.462;10.846;2023-07-09T02:02:50;101220;;;
74485;BMP280;62942;52.462;10.846;2023-07-09T02:04:00;101220;;;
74485;BMP280;62942;52.462;10.846;2023-07-09T02:05:10;101210;;;
74485;BMP280;62942;52.462;10.846;2023-07-09T02:06:10;101210;;;
74485;BMP280;62942;52.462;10.846;2023-07-09T02:07:21;101210;;;
74485;BMP280;62942;52.462;10.846;2023-07-09T02:08:30;101210;;;
74485;BMP280;62942;52.462;10.846;2023-07-09T02:09:40;101210;;;
74485;BMP280;62942;52.462;10.846;2023-07-09T02:10:50;101210;;;
74485;BMP280;62942;52.462;10.846;2023-07-09T02:11:50;101210;;;
74485;BMP280;62942;52.462;10.846;2023-07-09T02:13:00;101210;;;
74485;BMP280;62942;52.462;10.846;2023-07-09T02:14:10;101210;;;
74485;BMP280;62942;52.462;10.846;2023-07-09T02:15:10;101210;;;
74485;BMP280;62942;52.462;10.846;2023-07-09T02:16:10;101210;;;
74485;BMP280;62942;52.462;10.846;2023-07-09T02:17:20;101210;;;
74485;BMP280;62942;52.462;10.846;2023-07-09T02:18:30;101210;;;
74485;BMP280;62942;52.462;10.846;2023-07-09T02:19:30;101210;;;
74485;BMP280;62942;52.462;10.846;2023-07-09T02:20:40;101210;;;
74485;BMP280;62942;52.462;10.846;2023-07-09T02:21:50;101210;;;
74485;BMP280;62942;52.462;10.846;2023-07-09T02:22:50;101210;;;
74485;BMP280;62942;52.462;10.846;2023-07-09T02:23:50;101210;;;
74485;BMP280;62942;52.462;10.846;2023-07-09T02:24:50;101210;;;
74485;BMP280;62942;52.462;10.846;2023-07-09T02:26:00;101210;;;
74485;BMP280;62942;52.462;10.846;2023-07-09T02:27:01;101210;;;
74485;BMP280;62942;52.462;10.846;2023-07-09T02:28:10;101210;;;
74485;BMP280;62942;52.462;10.846;2023-07-09T02:29:20;101210;;;
74485;BMP280;62942;52.462;10.846;2023-07-09T02:30:20;101210;;;
74485;BMP280;62942;52.462;10.846;2023-07-09T02:31:20;101210;;;
74485;BMP280;62942;52.462;10.846;2023-07-09T02:32:30;101200;;;
74485;BMP280;62942;52.462;10.846;2023-07-09T02:33:40;101200;;;
74485;BMP280;62942;52.462;10.846;2023-07-09T02:34:50;101200;;;
74485;BMP280;62942;52.462;10.846;2023-07-09T02:36:00;101190;;;
74485;BMP280;62942;52.462;10.846;2023-07-09T02:37:10;101190;;;
74485;BMP280;62942;52.462;10.846;2023-07-09T02:38:10;101190;;;
74485;BMP280;62942;52.462;10.846;2023-07-09T02:39:10;101190;;;
74485;BMP280;62942;52.462;10.846;2023-07-09T02:40:11;101190;;;
74485;BMP280;62942;52.462;10.846;2023-07-09T02:41:20;101190;;;
74485;BMP280;62942;52.462;10.846;2023-07-09T02:42:21;101200;;;
74485;BMP280;62942;52.462;10.846;2023-07-09T02:43:20;101210;;;
74485;BMP280;62942;52.462;10.846;2023-07-09T02:44:30;101200;;;
74485;BMP280;62942;52.462;10.846;2023-07-09T02:45:40;101210;;;
74485;BMP280;62942;52.462;10.846;2023-07-09T02:46:50;101200;;;
74485;BMP280;62942;52.462;10.846;2023-07-09T02:48:00;101210;;;
74485;BMP280;62942;52.462;10.846;2023-07-09T02:49:10;101210;;;
74485;BMP280;62942;52.462;10.846;2023-07-09T02:50:20;101210;;;
74485;BMP280;62942;52.462;10.846;2023-07-09T02:51:30;101220;;;
74485;BMP280;62942;52.462;10.846;2023-07-09T02:52:40;101220;;;
74485;BMP280;62942;52.462;10.846;2023-07-09T02:53:50;101210;;;
74485;BMP280;62942;52.462;10.846;2023-07-09T02:54:50;101210;;;
74485;BMP280;62942;52.462;10.846;2023-07-09T02:55:50;101210;;;
74485;BMP280;62942;52.462;10.846;2023-07-09T02:57:00;101210;;;
74485;BMP280;62942;52.462;10.846;2023-07-09T02:58:00;101210;;;
74485;BMP280;62942;52.462;10.846;2023-07-09T02:59:00;101210;;;
74485;BMP280;62942;52.462;10.846;2023-07-09T03:00:10;101210;;;
74485;BMP280;62942;52.462;10.846;2023-07-09T03:01:20;101210;;;
74485;BMP280;62942;52.462;10.846;2023-07-09T03:02:30;101220;;;
74485;BMP280;62942;52.462;10.846;2023-07-09T03:03:40;101210;;;
74485;BMP280;62942;52.462;10.846;2023-07-09T03:04:50;101220;;;
74485;BMP280;62942;52.462;10.846;2023-07-09T03:05:50;101210;;;
74485;BMP280;62942;52.462;10.846;2023-07-09T03:06:50;101220;;;
74485;BMP280;62942;52.462;10.846;2023-07-09T03:08:00;101220;;;
74485;BMP280;62942;52.462;10.846;2023-07-09T03:09:10;101220;;;
74485;BMP280;62942;52.462;10.846;2023-07-09T03:10:20;101220;;;
74485;BMP280;62942;52.462;10.846;2023-07-09T03:11:31;101220;;;
74485;BMP280;62942;52.462;10.846;2023-07-09T03:12:40;101220;;;
74485;BMP280;62942;52.462;10.846;2023-07-09T03:13:50;101220;;;
74485;BMP280;62942;52.462;10.846;2023-07-09T03:15:00;101220;;;
74485;BMP280;62942;52.462;10.846;2023-07-09T03:16:10;101220;;;
74485;BMP280;62942;52.462;10.846;2023-07-09T03:17:10;101230;;;
74485;BMP280;62942;52.462;10.846;2023-07-09T03:18:10;101220;;;
74485;BMP280;62942;52.462;10.846;2023-07-09T03:19:10;101220;;;
74485;BMP280;62942;52.462;10.846;2023-07-09T03:20:20;101230;;;
74485;BMP280;62942;52.462;10.846;2023-07-09T03:21:30;101230;;;
74485;BMP280;62942;52.462;10.846;2023-07-09T03:22:40;101230;;;
74485;BMP280;62942;52.462;10.846;2023-07-09T03:23:50;101220;;;
74485;BMP280;62942;52.462;10.846;2023-07-09T03:25:00;101220;;;
74485;BMP280;62942;52.462;10.846;2023-07-09T03:26:10;101220;;;
74485;BMP280;62942;52.462;10.846;2023-07-09T03:27:20;101220;;;
74485;BMP280;62942;52.462;10.846;2023-07-09T03:28:30;101220;;;
74485;BMP280;62942;52.462;10.846;2023-07-09T03:29:30;101230;;;
74485;BMP280;62942;52.462;10.846;2023-07-09T03:30:30;101220;;;
74485;BMP280;62942;52.462;10.846;2023-07-09T03:31:40;101220;;;
74485;BMP280;62942;52.462;10.846;2023-07-09T03:32:40;101220;;;
74485;BMP280;62942;52.462;10.846;2023-07-09T03:33:40;101220;;;
74485;BMP280;62942;52.462;10.846;2023-07-09T03:34:50;101220;;;
74485;BMP280;62942;52.462;10.846;2023-07-09T03:35:50;101220;;;
74485;BMP280;62942;52.462;10.846;2023-07-09T03:37:00;101220;;;
74485;BMP280;62942;52.462;10.846;2023-07-09T03:38:10;101220;;;
74485;BMP280;62942;52.462;10.846;2023-07-09T03:39:10;101220;;;
74485;BMP280;62942;52.462;10.846;2023-07-09T03:40:20;101220;;;
74485;BMP280;62942;52.462;10.846;2023-07-09T03:41:20;101220;;;
74485;BMP280;62942;52.462;10.846;2023-07-09T03:42:30;101230;;;
74485;BMP280;62942;52.462;10.846;2023-07-09T03:43:40;101220;;;
74485;BMP280;62942;52.462;10.846;2023-07-09T03:44:50;101230;;;
74485;BMP280;62942;52.462;10.846;2023-07-09T03:46:00;101230;;;
74485;BMP280;62942;52.462;10.846;2023-07-09T03:47:10;101230;;;
74485;BMP280;62942;52.462;10.846;2023-07-09T03:48:20;101230;;;
74485;BMP280;62942;52.462;10.846;2023-07-09T03:49:30;101220;;;
74485;BMP280;62942;52.462;10.846;2023-07-09T03:50:40;101220;;;
74485;BMP280;62942;52.462;10.846;2023-07-09T03:51:50;101220;;;
74485;BMP280;62942;52.462;10.846;2023-07-09T03:53:00;101210;;;
74485;BMP280;62942;52.462;10.846;2023-07-09T03:54:10;101210;;;
74485;BMP280;62942;52.462;10.846;2023-07-09T03:55:20;101220;;;
74485;BMP280;62942;52.462;10.846;2023-07-09T03:56:30;101220;;;
74485;BMP280;62942;52.462;10.846;2023-07-09T03:57:40;101230;;;
74485;BMP280;62942;52.462;10.846;2023-07-09T03:58:40;101230;;;
74485;BMP280;62942;52.462;10.846;2023-07-09T03:59:50;101230;;;
74485;BMP280;62942;52.462;10.846;2023-07-09T04:00:50;101230;;;
74485;BMP280;62942;52.462;10.846;2023-07-09T04:01:50;101230;;;
74485;BMP280;62942;52.462;10.846;2023-07-09T04:03:00;101220;;;
74485;BMP280;62942;52.462;10.846;2023-07-09T04:04:10;101230;;;
74485;BMP280;62942;52.462;10.846;2023-07-09T04:05:10;101230;;;
74485;BMP280;62942;52.462;10.846;2023-07-09T04:06:20;101230;;;
74485;BMP280;62942;52.462;10.846;2023-07-09T04:07:30;101230;;;
74485;BMP280;62942;52.462;10.846;2023-07-09T04:08:40;101240;;;
74485;BMP280;62942;52.462;10.846;2023-07-09T04:09:50;101230;;;
74485;BMP280;62942;52.462;10.846;2023-07-09T04:10:50;101240;;;
74485;BMP280;62942;52.462;10.846;2023-07-09T04:11:50;101230;;;
74485;BMP280;62942;52.462;10.846;2023-07-09T04:13:00;101240;;;
74485;BMP280;62942;52.462;10.846;2023-07-09T04:14:10;101240;;;
74485;BMP280;62942;52.462;10.846;2023-07-09T04:15:21;101240;;;
74485;BMP280;62942;52.462;10.846;2023-07-09T04:16:20;101240;;;
74485;BMP280;62942;52.462;10.846;2023-07-09T04:17:30;101240;;;
74485;BMP280;62942;52.462;10.846;2023-07-09T04:18:40;101240;;;
74485;BMP280;62942;52.462;10.846;2023-07-09T04:19:50;101240;;;
74485;BMP280;62942;52.462;10.846;2023-07-09T04:20:50;101240;;;
74485;BMP280;62942;52.462;10.846;2023-07-09T04:21:50;101240;;;
74485;BMP280;62942;52.462;10.846;2023-07-09T04:23:00;101240;;;
74485;BMP280;62942;52.462;10.846;2023-07-09T04:24:00;101240;;;
74485;BMP280;62942;52.462;10.846;2023-07-09T04:25:10;101240;;;
74485;BMP280;62942;52.462;10.846;2023-07-09T04:26:20;101240;;;
74485;BMP280;62942;52.462;10.846;2023-07-09T04:27:30;101240;;;
74485;BMP280;62942;52.462;10.846;2023-07-09T04:28:40;101240;;;
74485;BMP280;62942;52.462;10.846;2023-07-09T04:29:50;101240;;;
74485;BMP280;62942;52.462;10.846;2023-07-09T04:30:50;101240;;;
74485;BMP280;62942;52.462;10.846;2023-07-09T04:32:00;101240;;;
74485;BMP280;62942;52.462;10.846;2023-07-09T04:33:00;101240;;;
74485;BMP280;62942;52.462;10.846;2023-07-09T04:34:10;101230;;;
74485;BMP280;62942;52.462;10.846;2023-07-09T04:35:10;101220;;;
74485;BMP280;62942;52.462;10.846;2023-07-09T04:36:10;101220;;;
74485;BMP280;62942;52.462;10.846;2023-07-09T04:37:20;101230;;;
74485;BMP280;62942;52.462;10.846;2023-07-09T04:38:30;101230;;;
74485;BMP280;62942;52.462;10.846;2023-07-09T04:39:30;101230;;;
74485;BMP280;62942;52.462;10.846;2023-07-09T04:40:30;101230;;;
74485;BMP280;62942;52.462;10.846;2023-07-09T04:41:40;101230;;;
74485;BMP280;62942;52.462;10.846;2023-07-09T04:42:40;101230;;;
74485;BMP280;62942;52.462;10.846;2023-07-09T04:43:50;101230;;;
74485;BMP280;62942;52.462;10.846;2023-07-09T04:45:00;101240;;;
74485;BMP280;62942;52.462;10.846;2023-07-09T04:46:00;101230;;;
74485;BMP280;62942;52.462;10.846;2023-07-09T04:47:00;101240;;;
74485;BMP280;62942;52.462;10.846;2023-07-09T04:48:10;101230;;;
74485;BMP280;62942;52.462;10.846;2023-07-09T04:49:20;101230;;;
74485;BMP280;62942;52.462;10.846;2023-07-09T04:50:20;101230;;;
74485;BMP280;62942;52.462;10.846;2023-07-09T04:51:20;101230;;;
74485;BMP280;62942;52.462;10.846;2023-07-09T04:52:30;101230;;;
74485;BMP280;62942;52.462;10.846;2023-07-09T04:53:30;101230;;;
74485;BMP280;62942;52.462;10.846;2023-07-09T04:54:40;101230;;;
74485;BMP280;62942;52.462;10.846;2023-07-09T04:55:50;101230;;;
74485;BMP280;62942;52.462;10.846;2023-07-09T04:56:50;101220;;;
74485;BMP280;62942;52.462;10.846;2023-07-09T04:58:00;101230;;;
74485;BMP280;62942;52.462;10.846;2023-07-09T04:59:10;101230;;;
74485;BMP280;62942;52.462;10.846;2023-07-09T05:00:10;101230;;;
74485;BMP280;62942;52.462;10.846;2023-07-09T05:01:20;101230;;;
74485;BMP280;62942;52.462;10.846;2023-07-09T05:02:30;101240;;;
74485;BMP280;62942;52.462;10.846;2023-07-09T05:03:30;101230;;;
74485;BMP280;62942;52.462;10.846;2023-07-09T05:04:40;101230;;;
74485;BMP280;62942;52.462;10.846;2023-07-09T05:05:50;101230;;;
74485;BMP280;62942;52.462;10.846;2023-07-09T05:06:50;101230;;;
74485;BMP280;62942;52.462;10.846;2023-07-09T05:07:50;101230;;;
74485;BMP280;62942;52.462;10.846;2023-07-09T05:09:00;101240;;;
74485;BMP280;62942;52.462;10.846;2023-07-09T05:10:10;101240;;;
74485;BMP280;62942;52.462;10.846;2023-07-09T05:11:10;101240;;;
74485;BMP280;62942;52.462;10.846;2023-07-09T05:12:20;101240;;;
74485;BMP280;62942;52.462;10.846;2023-07-09T05:13:20;101240;;;
74485;BMP280;62942;52.462;10.846;2023-07-09T05:14:30;101240;;;
74485;BMP280;62942;52.462;10.846;2023-07-09T05:15:30;101240;;;
74485;BMP280;62942;52.462;10.846;2023-07-09T05:16:40;101240;;;
74485;BMP280;62942;52.462;10.846;2023-07-09T05:17:50;101240;;;
74485;BMP280;62942;52.462;10.846;2023-07-09T05:18:50;101240;;;
74485;BMP280;62942;52.462;10.846;2023-07-09T05:20:00;101240;;;
74485;BMP280;62942;52.462;10.846;2023-07-09T05:21:10;101240;;;
74485;BMP280;62942;52.462;10.846;2023-07-09T05:22:20;101240;;;
74485;BMP280;62942;52.462;10.846;2023-07-09T05:23:30;101240;;;
74485;BMP280;62942;52.462;10.846;2023-07-09T05:24:40;101240;;;
74485;BMP280;62942;52.462;10.846;2023-07-09T05:25:40;101240;;;
74485;BMP280;62942;52.462;10.846;2023-07-09T05:26:50;101240;;;
74485;BMP280;62942;52.462;10.846;2023-07-09T05:28:00;101240;;;
74485;BMP280;62942;52.462;10.846;2023-07-09T05:29:01;101240;;;
74485;BMP280;62942;52.462;10.846;2023-07-09T05:30:00;101240;;;
74485;BMP280;62942;52.462;10.846;2023-07-09T05:31:10;101240;;;
74485;BMP280;62942;52.462;10.846;2023-07-09T05:32:20;101240;;;
74485;BMP280;62942;52.462;10.846;2023-07-09T05:33:20;101240;;;
74485;BMP280;62942;52.462;10.846;2023-07-09T05:34:30;101240;;;
74485;BMP280;62942;52.462;10.846;2023-07-09T05:35:41;101240;;;
74485;BMP280;62942;52.462;10.846;2023-07-09T05:36:50;101250;;;
74485;BMP280;62942;52.462;10.846;2023-07-09T05:38:00;101240;;;
74485;BMP280;62942;52.462;10.846;2023-07-09T05:39:10;101250;;;
74485;BMP280;62942;52.462;10.846;2023-07-09T05:40:20;101250;;;
74485;BMP280;62942;52.462;10.846;2023-07-09T05:41:30;101250;;;
74485;BMP280;62942;52.462;10.846;2023-07-09T05:42:30;101240;;;
74485;BMP280;62942;52.462;10.846;2023-07-09T05:43:40;101250;;;
74485;BMP280;62942;52.462;10.846;2023-07-09T05:44:40;101240;;;
74485;BMP280;62942;52.462;10.846;2023-07-09T05:45:50;101240;;;
74485;BMP280;62942;52.462;10.846;2023-07-09T05:47:00;101240;;;
74485;BMP280;62942;52.462;10.846;2023-07-09T05:48:00;101250;;;
74485;BMP280;62942;52.462;10.846;2023-07-09T05:49:10;101250;;;
74485;BMP280;62942;52.462;10.846;2023-07-09T05:50:20;101250;;;
74485;BMP280;62942;52.462;10.846;2023-07-09T05:51:20;101240;;;
74485;BMP280;62942;52.462;10.846;2023-07-09T05:52:30;101240;;;
74485;BMP280;62942;52.462;10.846;2023-07-09T05:53:40;101250;;;
74485;BMP280;62942;52.462;10.846;2023-07-09T05:54:40;101240;;;
74485;BMP280;62942;52.462;10.846;2023-07-09T05:55:52;101240;;;
74485;BMP280;62942;52.462;10.846;2023-07-09T05:57:00;101240;;;
74485;BMP280;62942;52.462;10.846;2023-07-09T05:58:00;101240;;;
74485;BMP280;62942;52.462;10.846;2023-07-09T05:59:10;101240;;;
74485;BMP280;62942;52.462;10.846;2023-07-09T06:00:10;101240;;;
74485;BMP280;62942;52.462;10.846;2023-07-09T06:01:20;101250;;;
74485;BMP280;62942;52.462;10.846;2023-07-09T06:02:20;101250;;;
74485;BMP280;62942;52.462;10.846;2023-07-09T06:03:30;101240;;;
74485;BMP280;62942;52.462;10.846;2023-07-09T06:04:30;101250;;;
74485;BMP280;62942;52.462;10.846;2023-07-09T06:05:40;101250;;;
74485;BMP280;62942;52.462;10.846;2023-07-09T06:06:40;101250;;;
74485;BMP280;62942;52.462;10.846;2023-07-09T06:07:50;101250;;;
74485;BMP280;62942;52.462;10.846;2023-07-09T06:08:50;101250;;;
74485;BMP280;62942;52.462;10.846;2023-07-09T06:09:50;101250;;;
74485;BMP280;62942;52.462;10.846;2023-07-09T06:11:01;101250;;;
74485;BMP280;62942;52.462;10.846;2023-07-09T06:12:10;101250;;;
74485;BMP280;62942;52.462;10.846;2023-07-09T06:13:10;101250;;;
74485;BMP280;62942;52.462;10.846;2023-07-09T06:14:20;101250;;;
74485;BMP280;62942;52.462;10.846;2023-07-09T06:15:20;101250;;;
74485;BMP280;62942;52.462;10.846;2023-07-09T06:16:20;101250;;;
74485;BMP280;62942;52.462;10.846;2023-07-09T06:17:30;101260;;;
74485;BMP280;62942;52.462;10.846;2023-07-09T06:18:40;101250;;;
74485;BMP280;62942;52.462;10.846;2023-07-09T06:19:50;101250;;;
74485;BMP280;62942;52.462;10.846;2023-07-09T06:20:50;101250;;;
74485;BMP280;62942;52.462;10.846;2023-07-09T06:22:00;101250;;;
74485;BMP280;62942;52.462;10.846;2023-07-09T06:23:10;101250;;;
74485;BMP280;62942;52.462;10.846;2023-07-09T06:24:10;101250;;;
74485;BMP280;62942;52.462;10.846;2023-07-09T06:25:20;101250;;;
74485;BMP280;62942;52.462;10.846;2023-07-09T06:26:20;101250;;;
74485;BMP280;62942;52.462;10.846;2023-07-09T06:27:30;101250;;;
74485;BMP280;62942;52.462;10.846;2023-07-09T06:28:30;101250;;;
74485;BMP280;62942;52.462;10.846;2023-07-09T06:29:40;101250;;;
74485;BMP280;62942;52.462;10.846;2023-07-09T06:30:40;101250;;;
74485;BMP280;62942;52.462;10.846;2023-07-09T06:31:50;101250;;;
74485;BMP280;62942;52.462;10.846;2023-07-09T06:32:50;101250;;;
74485;BMP280;62942;52.462;10.846;2023-07-09T06:34:00;101240;;;
74485;BMP280;62942;52.462;10.846;2023-07-09T06:35:10;101250;;;
74485;BMP280;62942;52.462;10.846;2023-07-09T06:36:10;101250;;;
74485;BMP280;62942;52.462;10.846;2023-07-09T06:37:10;101240;;;
74485;BMP280;62942;52.462;10.846;2023-07-09T06:38:20;101240;;;
74485;BMP280;62942;52.462;10.846;2023-07-09T06:39:20;101240;;;
74485;BMP280;62942;52.462;10.846;2023-07-09T06:40:30;101250;;;
74485;BMP280;62942;52.462;10.846;2023-07-09T06:41:40;101250;;;
74485;BMP280;62942;52.462;10.846;2023-07-09T06:42:40;101260;;;
74485;BMP280;62942;52.462;10.846;2023-07-09T06:43:50;101260;;;
74485;BMP280;62942;52.462;10.846;2023-07-09T06:44:50;101260;;;
74485;BMP280;62942;52.462;10.846;2023-07-09T06:46:00;101260;;;
74485;BMP280;62942;52.462;10.846;2023-07-09T06:47:10;101260;;;
74485;BMP280;62942;52.462;10.846;2023-07-09T06:48:20;101260;;;
74485;BMP280;62942;52.462;10.846;2023-07-09T06:49:20;101260;;;
74485;BMP280;62942;52.462;10.846;2023-07-09T06:50:20;101250;;;
74485;BMP280;62942;52.462;10.846;2023-07-09T06:51:30;101260;;;
74485;BMP280;62942;52.462;10.846;2023-07-09T06:52:39;101260;;;
74485;BMP280;62942;52.462;10.846;2023-07-09T06:53:40;101260;;;
74485;BMP280;62942;52.462;10.846;2023-07-09T06:54:50;101260;;;
74485;BMP280;62942;52.462;10.846;2023-07-09T06:55:59;101260;;;
74485;BMP280;62942;52.462;10.846;2023-07-09T06:56:59;101260;;;
74485;BMP280;62942;52.462;10.846;2023-07-09T06:58:10;101250;;;